createdAt,value
2018-11-04T00:01:04.965Z,7.97
2018-11-04T00:03:38.834Z,8.33
2018-11-04T00:06:12.664Z,9.37
2018-11-04T00:08:46.582Z,9.63
2018-11-04T00:11:20.465Z,9.43
2018-11-04T00:13:54.356Z,9.43
2018-11-04T00:16:28.163Z,8.53
2018-11-04T00:19:02.076Z,9.10
2018-11-04T00:21:35.926Z,9.13
2018-11-04T00:24:09.885Z,9.13
2018-11-04T00:26:43.650Z,9.17
2018-11-04T00:29:17.598Z,9.50
2018-11-04T00:31:51.445Z,9.67
2018-11-04T00:34:25.330Z,9.00
2018-11-04T00:36:59.201Z,8.83
2018-11-04T00:39:33.030Z,9.47
2018-11-04T00:42:06.859Z,10.03
2018-11-04T00:44:40.736Z,10.10
2018-11-04T00:47:14.570Z,9.30
2018-11-04T00:49:48.423Z,9.53
2018-11-04T00:52:22.240Z,8.60
2018-11-04T00:54:56.249Z,9.43
2018-11-04T00:57:30.075Z,8.60
2018-11-04T01:00:04.539Z,9.53
2018-11-04T01:02:38.397Z,8.13
2018-11-04T01:05:12.226Z,8.50
2018-11-04T01:07:46.096Z,9.57
2018-11-04T01:10:19.981Z,9.07
2018-11-04T01:12:53.766Z,12.07
2018-11-04T01:15:27.611Z,9.90
2018-11-04T01:18:01.464Z,11.83
2018-11-04T01:20:35.354Z,12.40
2018-11-04T01:23:09.292Z,10.77
2018-11-04T01:25:43.157Z,11.47
2018-11-04T01:28:17.005Z,10.97
2018-11-04T01:30:50.869Z,12.80
2018-11-04T01:33:24.721Z,12.20
2018-11-04T01:35:58.597Z,13.13
2018-11-04T01:38:32.435Z,17.53
2018-11-04T01:41:06.358Z,13.27
2018-11-04T01:43:40.178Z,12.03
2018-11-04T01:46:14.027Z,12.17
2018-11-04T01:48:47.908Z,13.37
2018-11-04T01:51:21.749Z,11.67
2018-11-04T01:53:55.624Z,12.50
2018-11-04T01:56:29.476Z,10.27
2018-11-04T01:59:03.596Z,11.57
2018-11-04T02:01:37.468Z,15.23
2018-11-04T02:04:11.314Z,11.43
2018-11-04T02:06:45.150Z,11.47
2018-11-04T02:09:18.954Z,11.30
2018-11-04T02:11:52.886Z,12.30
2018-11-04T02:14:26.732Z,12.27
2018-11-04T02:17:00.585Z,11.30
2018-11-04T02:19:34.406Z,11.80
2018-11-04T02:22:08.229Z,11.57
2018-11-04T02:24:42.047Z,12.37
2018-11-04T02:27:15.967Z,12.40
2018-11-04T02:29:49.769Z,13.90
2018-11-04T02:32:23.603Z,11.90
2018-11-04T02:34:57.396Z,13.23
2018-11-04T02:37:31.309Z,13.83
2018-11-04T02:40:05.410Z,18.63
2018-11-04T02:42:39.264Z,12.40
2018-11-04T02:45:13.060Z,12.47
2018-11-04T02:47:46.942Z,12.40
2018-11-04T02:50:20.885Z,14.63
2018-11-04T02:52:56.039Z,16.73
2018-11-04T02:55:29.843Z,13.47
2018-11-04T02:58:03.749Z,15.30
2018-11-04T03:00:37.564Z,17.40
2018-11-04T03:03:11.441Z,13.97
2018-11-04T03:05:45.260Z,12.77
2018-11-04T03:08:19.191Z,12.80
2018-11-04T03:10:52.981Z,12.43
2018-11-04T03:13:26.909Z,13.77
2018-11-04T03:16:00.744Z,14.67
2018-11-04T03:18:34.577Z,14.50
2018-11-04T03:21:08.701Z,14.47
2018-11-04T03:23:42.575Z,13.90
2018-11-04T03:26:16.397Z,14.37
2018-11-04T03:28:50.410Z,17.30
2018-11-04T03:31:24.248Z,14.03
2018-11-04T03:33:58.144Z,13.67
2018-11-04T03:36:32.009Z,12.53
2018-11-04T03:39:08.028Z,16.00
2018-11-04T03:41:42.628Z,14.53
2018-11-04T03:44:16.421Z,19.20
2018-11-04T03:46:50.243Z,15.20
2018-11-04T03:49:24.084Z,21.23
2018-11-04T03:51:57.917Z,15.80
2018-11-04T03:54:31.786Z,18.60
2018-11-04T03:57:06.141Z,15.93
2018-11-04T03:59:40.146Z,14.70
2018-11-04T04:02:13.971Z,14.70
2018-11-04T04:04:47.930Z,14.43
2018-11-04T04:07:21.789Z,13.60
2018-11-04T04:09:55.649Z,11.83
2018-11-04T04:12:29.479Z,12.73
2018-11-04T04:15:03.354Z,11.60
2018-11-04T04:17:37.228Z,13.00
2018-11-04T04:20:11.146Z,12.77
2018-11-04T04:22:45.008Z,14.37
2018-11-04T04:25:18.925Z,12.80
2018-11-04T04:27:52.762Z,13.13
2018-11-04T04:30:26.606Z,13.57
2018-11-04T04:33:00.401Z,13.60
2018-11-04T04:35:34.477Z,12.70
2018-11-04T04:38:08.275Z,14.00
2018-11-04T04:40:42.137Z,13.70
2018-11-04T04:43:15.965Z,14.03
2018-11-04T04:45:49.813Z,14.30
2018-11-04T04:48:23.652Z,14.40
2018-11-04T04:50:57.523Z,13.97
2018-11-04T04:53:31.375Z,16.20
2018-11-04T04:56:05.232Z,13.60
2018-11-04T04:58:39.041Z,14.50
2018-11-04T05:01:12.919Z,17.83
2018-11-04T05:03:46.748Z,15.60
2018-11-04T05:06:20.585Z,14.83
2018-11-04T05:08:54.694Z,15.10
2018-11-04T05:11:28.552Z,15.33
2018-11-04T05:14:02.427Z,24.97
2018-11-04T05:16:36.278Z,19.40
2018-11-04T05:19:10.092Z,17.17
2018-11-04T05:21:44.144Z,13.90
2018-11-04T05:24:17.946Z,15.70
2018-11-04T05:26:51.766Z,17.47
2018-11-04T05:29:25.578Z,15.40
2018-11-04T05:31:59.409Z,24.53
2018-11-04T05:34:33.286Z,14.40
2018-11-04T05:37:07.136Z,16.70
2018-11-04T05:39:40.949Z,14.07
2018-11-04T05:42:14.813Z,24.07
2018-11-04T05:44:48.608Z,16.20
2018-11-04T05:47:22.462Z,17.40
2018-11-04T05:49:56.271Z,22.57
2018-11-04T05:52:30.243Z,16.60
2018-11-04T05:55:04.492Z,15.13
2018-11-04T05:57:38.477Z,16.20
2018-11-04T06:00:12.464Z,14.33
2018-11-04T06:02:46.309Z,14.70
2018-11-04T06:05:20.189Z,13.50
2018-11-04T06:07:54.137Z,14.50
2018-11-04T06:10:27.950Z,20.70
2018-11-04T06:13:01.839Z,15.00
2018-11-04T06:15:35.675Z,17.33
2018-11-04T06:18:09.785Z,20.97
2018-11-04T06:20:43.698Z,26.30
2018-11-04T06:23:17.663Z,30.53
2018-11-04T06:25:51.493Z,20.97
2018-11-04T06:28:25.370Z,18.90
2018-11-04T06:30:59.225Z,18.10
2018-11-04T06:33:33.192Z,18.90
2018-11-04T06:36:07.038Z,17.23
2018-11-04T06:38:40.867Z,19.13
2018-11-04T06:41:14.740Z,19.07
2018-11-04T06:43:48.685Z,14.70
2018-11-04T06:46:22.607Z,14.53
2018-11-04T06:48:56.452Z,15.10
2018-11-04T06:51:30.326Z,17.53
2018-11-04T06:54:04.203Z,17.73
2018-11-04T06:56:38.038Z,20.63
2018-11-04T06:59:11.917Z,25.60
2018-11-04T07:01:45.784Z,20.80
2018-11-04T07:04:22.136Z,17.60
2018-11-04T07:06:56.013Z,17.70
2018-11-04T07:09:29.978Z,18.80
2018-11-04T07:12:03.765Z,20.83
2018-11-04T07:14:37.645Z,20.87
2018-11-04T07:17:11.489Z,16.57
2018-11-04T07:19:45.458Z,14.67
2018-11-04T07:22:19.296Z,15.77
2018-11-04T07:24:53.174Z,16.93
2018-11-04T07:27:27.007Z,16.70
2018-11-04T07:30:00.889Z,18.97
2018-11-04T07:32:34.793Z,18.53
2018-11-04T07:35:09.282Z,15.27
2018-11-04T07:37:43.100Z,19.47
2018-11-04T07:40:16.969Z,18.90
2018-11-04T07:42:50.782Z,17.57
2018-11-04T07:45:24.629Z,24.60
2018-11-04T07:47:58.433Z,21.90
2018-11-04T07:50:32.410Z,20.57
2018-11-04T07:53:06.523Z,26.13
2018-11-04T07:55:40.489Z,21.77
2018-11-04T07:58:14.322Z,24.20
2018-11-04T08:00:48.197Z,19.63
2018-11-04T08:03:22.059Z,23.73
2018-11-04T08:05:55.947Z,38.00
2018-11-04T08:08:29.783Z,49.63
2018-11-04T08:11:03.644Z,51.80
2018-11-04T08:13:37.554Z,58.97
2018-11-04T08:16:11.352Z,35.50
2018-11-04T08:18:45.225Z,48.40
2018-11-04T08:21:19.220Z,34.10
2018-11-04T08:23:53.972Z,33.07
2018-11-04T08:26:27.913Z,29.73
2018-11-04T08:29:01.745Z,30.10
2018-11-04T08:31:35.600Z,31.60
2018-11-04T08:34:09.432Z,31.83
2018-11-04T08:36:43.294Z,43.97
2018-11-04T08:39:17.095Z,33.23
2018-11-04T08:41:51.068Z,45.00
2018-11-04T08:44:24.926Z,38.07
2018-11-04T08:46:58.818Z,39.73
2018-11-04T08:49:32.634Z,39.27
2018-11-04T08:52:06.525Z,36.73
2018-11-04T08:54:40.367Z,40.63
2018-11-04T08:57:14.550Z,39.20
2018-11-04T08:59:48.397Z,45.33
2018-11-04T09:02:23.450Z,38.43
2018-11-04T09:04:57.371Z,42.20
2018-11-04T09:07:31.249Z,38.73
2018-11-04T09:10:07.118Z,38.00
2018-11-04T09:12:41.149Z,38.03
2018-11-04T09:15:15.029Z,39.50
2018-11-04T09:17:48.886Z,43.90
2018-11-04T09:20:22.705Z,40.80
2018-11-04T09:22:56.602Z,40.20
2018-11-04T09:25:30.476Z,40.60
2018-11-04T09:28:04.501Z,37.77
2018-11-04T09:30:38.299Z,42.27
2018-11-04T09:33:12.137Z,41.50
2018-11-04T09:35:46.144Z,36.67
2018-11-04T09:38:19.904Z,39.60
2018-11-04T09:40:53.746Z,38.60
2018-11-04T09:43:27.679Z,37.47
2018-11-04T09:46:01.480Z,36.90
2018-11-04T09:48:35.361Z,35.77
2018-11-04T09:51:09.240Z,33.47
2018-11-04T09:53:43.099Z,35.83
2018-11-04T09:56:16.998Z,37.20
2018-11-04T09:58:50.899Z,35.60
2018-11-04T10:01:24.717Z,35.97
2018-11-04T10:03:58.577Z,38.93
2018-11-04T10:06:32.435Z,34.87
2018-11-04T10:09:08.441Z,34.93
2018-11-04T10:11:42.297Z,39.07
2018-11-04T10:14:16.240Z,36.07
2018-11-04T10:16:50.061Z,39.43
2018-11-04T10:19:24.335Z,37.23
2018-11-04T10:21:58.204Z,36.07
2018-11-04T10:24:32.104Z,38.47
2018-11-04T10:27:05.968Z,36.20
2018-11-04T10:29:39.802Z,33.47
2018-11-04T10:32:13.616Z,31.97
2018-11-04T10:34:47.473Z,37.40
2018-11-04T10:37:21.383Z,35.47
2018-11-04T10:39:55.336Z,36.67
2018-11-04T10:42:29.274Z,36.33
2018-11-04T10:45:03.222Z,34.07
2018-11-04T10:47:37.107Z,35.40
2018-11-04T10:50:12.314Z,34.50
2018-11-04T10:55:25.505Z,35.60
2018-11-04T10:57:59.329Z,37.77
2018-11-04T11:00:38.247Z,36.53
2018-11-04T11:03:12.067Z,35.88
2018-11-04T11:05:45.925Z,35.63
2018-11-04T11:08:19.782Z,36.70
2018-11-04T11:10:53.660Z,38.23
2018-11-04T11:13:27.485Z,36.00
2018-11-04T11:16:01.494Z,38.03
2018-11-04T11:18:35.341Z,35.50
2018-11-04T11:21:09.233Z,37.37
2018-11-04T11:23:43.059Z,36.33
2018-11-04T11:26:17.656Z,37.80
2018-11-04T11:28:51.485Z,36.17
2018-11-04T11:31:25.354Z,35.30
2018-11-04T11:33:59.198Z,37.25
2018-11-04T11:36:33.196Z,38.05
2018-11-04T11:39:09.523Z,38.90
2018-11-04T11:41:44.075Z,38.02
2018-11-04T11:44:17.931Z,38.55
2018-11-04T11:46:51.812Z,38.67
2018-11-04T11:49:25.640Z,36.60
2018-11-04T11:52:00.753Z,39.58
2018-11-04T11:54:35.761Z,36.70
2018-11-04T11:57:12.957Z,38.02
2018-11-04T11:59:48.076Z,37.38
2018-11-04T12:02:23.117Z,40.45
2018-11-04T12:04:58.808Z,37.30
2018-11-04T12:07:32.748Z,35.75
2018-11-04T12:10:08.502Z,37.25
2018-11-04T12:12:42.618Z,38.75
2018-11-04T12:15:16.603Z,36.20
2018-11-04T12:17:50.483Z,35.10
2018-11-04T12:20:24.323Z,36.25
2018-11-04T12:22:58.207Z,36.28
2018-11-04T12:25:32.017Z,35.73
2018-11-04T12:28:05.932Z,34.55
2018-11-04T12:30:39.739Z,38.05
2018-11-04T12:33:13.570Z,34.95
2018-11-04T12:35:47.386Z,38.83
2018-11-04T12:38:21.404Z,34.35
2018-11-04T12:40:55.253Z,33.40
2018-11-04T12:43:29.289Z,33.73
2018-11-04T12:46:03.147Z,35.33
2018-11-04T12:48:37.006Z,36.80
2018-11-04T12:51:10.862Z,35.83
2018-11-04T12:53:44.719Z,35.30
2018-11-04T12:56:18.540Z,34.13
2018-11-04T12:58:52.474Z,36.68
2018-11-04T13:01:26.327Z,36.70
2018-11-04T13:04:00.256Z,36.55
2018-11-04T13:06:34.057Z,38.20
2018-11-04T13:09:09.174Z,35.88
2018-11-04T13:11:43.010Z,40.05
2018-11-04T13:14:16.872Z,37.98
2018-11-04T13:16:50.846Z,38.02
2018-11-04T13:19:24.790Z,37.85
2018-11-04T13:21:58.602Z,36.77
2018-11-04T13:24:32.743Z,38.33
2018-11-04T13:27:06.692Z,34.92
2018-11-04T13:29:40.502Z,37.05
2018-11-04T13:32:14.304Z,36.08
2018-11-04T13:34:48.250Z,37.95
2018-11-04T13:37:22.106Z,36.98
2018-11-04T13:39:56.159Z,36.42
2018-11-04T13:42:30.009Z,36.73
2018-11-04T13:45:03.895Z,36.15
2018-11-04T13:47:37.974Z,38.45
2018-11-04T13:50:13.593Z,37.70
2018-11-04T13:52:47.444Z,37.45
2018-11-04T13:55:21.300Z,38.25
2018-11-04T13:57:55.148Z,39.92
2018-11-04T14:00:29.032Z,37.78
2018-11-04T14:03:02.872Z,40.12
2018-11-04T14:05:36.750Z,41.50
2018-11-04T14:08:10.570Z,38.75
2018-11-04T14:10:44.544Z,38.60
2018-11-04T14:13:18.455Z,39.80
2018-11-04T14:15:52.271Z,39.48
2018-11-04T14:18:26.045Z,37.90
2018-11-04T14:20:59.922Z,36.48
2018-11-04T14:23:33.826Z,36.48
2018-11-04T14:26:08.095Z,37.80
2018-11-04T14:28:41.977Z,36.13
2018-11-04T14:31:15.964Z,38.28
2018-11-04T14:33:49.860Z,36.73
2018-11-04T14:36:23.749Z,37.85
2018-11-04T14:38:57.560Z,36.85
2018-11-04T14:41:31.438Z,37.35
2018-11-04T14:44:05.566Z,38.25
2018-11-04T14:46:39.423Z,36.95
2018-11-04T14:49:13.248Z,38.23
2018-11-04T14:51:47.112Z,37.73
2018-11-04T14:54:21.390Z,39.33
2018-11-04T14:56:55.253Z,39.03
2018-11-04T14:59:29.238Z,39.20
2018-11-04T15:02:03.176Z,38.83
2018-11-04T15:04:36.980Z,38.40
2018-11-04T15:07:10.914Z,41.02
2018-11-04T15:09:44.715Z,37.85
2018-11-04T15:12:18.616Z,38.70
2018-11-04T15:14:52.460Z,36.88
2018-11-04T15:17:26.398Z,39.20
2018-11-04T15:20:00.228Z,39.57
2018-11-04T15:22:34.276Z,38.43
2018-11-04T15:25:08.136Z,39.00
2018-11-04T15:27:41.968Z,41.20
2018-11-04T15:30:15.764Z,41.33
2018-11-04T15:32:49.660Z,37.93
2018-11-04T15:35:23.484Z,41.42
2018-11-04T15:37:57.373Z,41.20
2018-11-04T15:40:31.318Z,41.30
2018-11-04T15:43:05.290Z,44.93
2018-11-04T15:45:39.161Z,43.53
2018-11-04T15:48:13.039Z,42.37
2018-11-04T15:50:46.844Z,42.00
2018-11-04T15:53:20.807Z,46.83
2018-11-04T15:55:54.627Z,45.23
2018-11-04T15:58:28.464Z,44.73
2018-11-04T16:01:02.310Z,43.10
2018-11-04T16:03:36.148Z,44.77
2018-11-04T16:06:10.017Z,44.87
2018-11-04T16:08:43.843Z,45.40
2018-11-04T16:11:17.729Z,51.43
2018-11-04T16:13:51.641Z,50.07
2018-11-04T16:16:25.570Z,47.53
2018-11-04T16:18:59.479Z,48.43
2018-11-04T16:21:33.326Z,52.55
2018-11-04T16:24:07.274Z,54.57
2018-11-04T16:26:41.111Z,55.23
2018-11-04T16:29:14.965Z,49.93
2018-11-04T16:31:49.038Z,57.73
2018-11-04T16:34:23.306Z,53.90
2018-11-04T16:36:57.259Z,50.20
2018-11-04T16:39:31.289Z,61.90
2018-11-04T16:42:05.528Z,49.90
2018-11-04T16:44:39.770Z,51.23
2018-11-04T16:47:13.798Z,48.43
2018-11-04T16:49:48.080Z,51.50
2018-11-04T16:52:22.322Z,51.67
2018-11-04T16:54:56.706Z,62.90
2018-11-04T16:57:30.688Z,53.93
2018-11-04T17:00:04.816Z,71.53
2018-11-04T17:02:39.279Z,50.38
2018-11-04T17:05:13.830Z,50.40
2018-11-04T17:07:47.998Z,61.93
2018-11-04T17:10:22.293Z,50.20
2018-11-04T17:12:56.376Z,65.10
2018-11-04T17:15:30.626Z,68.63
2018-11-04T17:18:04.898Z,73.30
2018-11-04T17:20:39.028Z,68.90
2018-11-04T17:23:13.032Z,55.45
2018-11-04T17:25:47.092Z,52.07
2018-11-04T17:28:21.091Z,49.20
2018-11-04T17:30:55.141Z,60.87
2018-11-04T17:33:29.384Z,51.03
2018-11-04T17:36:03.568Z,54.00
2018-11-04T17:38:37.670Z,60.53
2018-11-04T17:41:11.769Z,71.47
2018-11-04T17:43:45.986Z,49.77
2018-11-04T17:46:20.297Z,49.83
2018-11-04T17:48:54.497Z,49.53
2018-11-04T17:51:28.571Z,55.00
2018-11-04T17:54:02.631Z,46.43
2018-11-04T17:56:36.701Z,45.37
2018-11-04T17:59:10.903Z,47.43
2018-11-04T18:01:45.121Z,59.38
2018-11-04T18:04:19.127Z,66.00
2018-11-04T18:06:53.244Z,53.17
2018-11-04T18:09:27.265Z,60.13
2018-11-04T18:12:01.312Z,63.60
2018-11-04T18:14:35.317Z,51.93
2018-11-04T18:17:09.453Z,53.77
2018-11-04T18:19:43.467Z,57.90
2018-11-04T18:22:17.517Z,58.93
2018-11-04T18:24:51.565Z,68.13
2018-11-04T18:27:25.914Z,55.67
2018-11-04T18:30:00.127Z,79.40
2018-11-04T18:32:34.165Z,83.10
2018-11-04T18:35:08.317Z,72.53
2018-11-04T18:37:42.487Z,56.07
2018-11-04T18:40:18.138Z,86.20
2018-11-04T18:42:52.403Z,91.63
2018-11-04T18:45:26.527Z,106.10
2018-11-04T18:48:00.599Z,169.90
2018-11-04T18:50:34.903Z,70.73
2018-11-04T18:53:09.255Z,93.67
2018-11-04T18:55:43.253Z,77.10
2018-11-04T18:58:17.302Z,65.93
2018-11-04T19:00:51.370Z,66.53
2018-11-04T19:03:25.393Z,59.67
2018-11-04T19:05:59.412Z,77.97
2018-11-04T19:08:33.592Z,64.10
2018-11-04T19:11:07.879Z,70.27
2018-11-04T19:13:42.135Z,61.77
2018-11-04T19:16:16.148Z,89.97
2018-11-04T19:18:50.546Z,60.13
2018-11-04T19:21:24.522Z,71.77
2018-11-04T19:23:58.564Z,76.50
2018-11-04T19:26:32.586Z,73.92
2018-11-04T19:29:07.057Z,60.23
2018-11-04T19:31:41.282Z,109.53
2018-11-04T19:34:15.553Z,88.17
2018-11-04T19:36:49.737Z,67.22
2018-11-04T19:39:23.993Z,63.40
2018-11-04T19:41:58.194Z,66.17
2018-11-04T19:44:32.383Z,113.62
2018-11-04T19:47:07.308Z,161.07
2018-11-04T19:49:41.680Z,77.00
2018-11-04T19:52:15.970Z,85.27
2018-11-04T19:54:50.237Z,61.53
2018-11-04T19:57:28.859Z,81.90
2018-11-04T20:00:03.652Z,93.15
2018-11-04T20:02:38.997Z,65.80
2018-11-04T20:05:14.737Z,99.33
2018-11-04T20:07:49.194Z,62.77
2018-11-04T20:10:29.950Z,72.83
2018-11-04T20:13:09.177Z,86.87
2018-11-04T20:15:43.415Z,65.35
2018-11-04T20:18:22.566Z,79.13
2018-11-04T20:20:56.820Z,63.13
2018-11-04T20:23:30.960Z,59.63
2018-11-04T20:26:07.132Z,63.00
2018-11-04T20:28:41.207Z,62.35
2018-11-04T20:31:21.724Z,54.80
2018-11-04T20:33:54.857Z,78.20
2018-11-04T20:36:29.317Z,60.53
2018-11-04T20:39:08.451Z,71.80
2018-11-04T20:41:43.329Z,65.87
2018-11-04T20:44:17.532Z,82.60
2018-11-04T20:46:51.636Z,67.63
2018-11-04T20:49:31.482Z,56.73
2018-11-04T20:52:05.850Z,54.53
2018-11-04T20:54:39.924Z,52.97
2018-11-04T20:57:19.075Z,60.63
2018-11-04T20:59:53.123Z,53.17
2018-11-04T21:02:27.642Z,78.97
2018-11-04T21:05:01.710Z,67.60
2018-11-04T21:07:36.080Z,63.85
2018-11-04T21:10:10.943Z,55.12
2018-11-04T21:12:45.124Z,79.80
2018-11-04T21:15:19.242Z,69.15
2018-11-04T21:17:53.410Z,56.08
2018-11-04T21:20:27.563Z,69.85
2018-11-04T21:23:01.773Z,63.50
2018-11-04T21:25:36.187Z,72.47
2018-11-04T21:28:10.240Z,69.73
2018-11-04T21:30:44.442Z,58.17
2018-11-04T21:33:18.692Z,58.70
2018-11-04T21:35:52.962Z,67.37
2018-11-04T21:38:27.238Z,58.30
2018-11-04T21:41:01.788Z,58.28
2018-11-04T21:43:36.159Z,59.25
2018-11-04T21:46:10.876Z,60.73
2018-11-04T21:48:45.829Z,58.33
2018-11-04T21:51:20.033Z,73.37
2018-11-04T21:53:54.415Z,64.50
2018-11-04T21:56:28.603Z,57.87
2018-11-04T21:59:03.120Z,55.50
2018-11-04T22:01:37.630Z,53.95
2018-11-04T22:04:12.132Z,58.20
2018-11-04T22:06:46.545Z,55.50
2018-11-04T22:09:20.718Z,96.87
2018-11-04T22:11:54.861Z,87.80
2018-11-04T22:14:28.988Z,82.03
2018-11-04T22:17:03.028Z,58.98
2018-11-04T22:19:37.886Z,56.55
2018-11-04T22:22:12.160Z,60.03
2018-11-04T22:24:46.391Z,65.52
2018-11-04T22:27:20.765Z,63.50
2018-11-04T22:29:55.251Z,58.48
2018-11-04T22:32:29.407Z,62.40
2018-11-04T22:35:05.243Z,70.57
2018-11-04T22:37:41.332Z,57.93
2018-11-04T22:40:15.671Z,90.70
2018-11-04T22:42:50.179Z,53.03
2018-11-04T22:45:26.915Z,55.40
2018-11-04T22:48:02.194Z,72.97
2018-11-04T22:50:36.778Z,59.50
2018-11-04T22:53:12.874Z,55.13
2018-11-04T22:55:47.526Z,64.05
2018-11-04T22:58:21.666Z,54.03
2018-11-04T23:01:00.338Z,66.20
2018-11-04T23:03:35.545Z,59.88
2018-11-04T23:06:10.301Z,57.43
2018-11-04T23:08:45.564Z,67.00
2018-11-04T23:11:20.969Z,55.25
2018-11-04T23:13:55.132Z,54.45
2018-11-04T23:16:29.767Z,55.43
2018-11-04T23:19:03.906Z,59.67
2018-11-04T23:21:38.892Z,61.50
2018-11-04T23:24:14.269Z,76.60
2018-11-04T23:26:49.376Z,62.08
2018-11-04T23:29:23.537Z,51.33
2018-11-04T23:31:57.872Z,60.60
2018-11-04T23:34:33.641Z,61.17
2018-11-04T23:37:09.063Z,57.70
2018-11-04T23:39:43.117Z,56.00
2018-11-04T23:42:17.365Z,71.13
2018-11-04T23:44:51.464Z,83.67
2018-11-04T23:47:25.817Z,64.57
2018-11-04T23:50:00.023Z,63.63
2018-11-04T23:52:34.224Z,66.87
2018-11-04T23:55:09.340Z,67.47
2018-11-04T23:57:43.621Z,63.37
